sensor_id;sensor_type;location;lat;lon;timestamp;P1;durP1;ratioP1;P2;durP2;ratioP2
29960;SDS011;16816;44.444;26.152;2022-12-18T00:00:08;6.00;;;5.50;;
29960;SDS011;16816;44.444;26.152;2022-12-18T00:05:15;62.53;;;8.55;;
29960;SDS011;16816;44.444;26.152;2022-12-18T00:10:21;6.88;;;5.85;;
29960;SDS011;16816;44.444;26.152;2022-12-18T00:15:27;6.78;;;6.10;;
29960;SDS011;16816;44.444;26.152;2022-12-18T00:20:31;6.40;;;5.80;;
29960;SDS011;16816;44.444;26.152;2022-12-18T00:25:36;6.90;;;6.22;;
29960;SDS011;16816;44.444;26.152;2022-12-18T00:30:41;6.78;;;6.10;;
29960;SDS011;16816;44.444;26.152;2022-12-18T00:35:45;6.93;;;6.32;;
29960;SDS011;16816;44.444;26.152;2022-12-18T00:40:49;6.70;;;6.10;;
29960;SDS011;16816;44.444;26.152;2022-12-18T00:45:54;6.85;;;6.13;;
29960;SDS011;16816;44.444;26.152;2022-12-18T00:51:00;7.28;;;6.53;;
29960;SDS011;16816;44.444;26.152;2022-12-18T00:56:04;7.00;;;6.20;;
29960;SDS011;16816;44.444;26.152;2022-12-18T01:01:10;7.50;;;6.80;;
29960;SDS011;16816;44.444;26.152;2022-12-18T01:06:14;7.32;;;6.57;;
29960;SDS011;16816;44.444;26.152;2022-12-18T01:11:19;7.60;;;6.78;;
29960;SDS011;16816;44.444;26.152;2022-12-18T01:16:25;7.60;;;6.90;;
29960;SDS011;16816;44.444;26.152;2022-12-18T01:21:29;8.80;;;7.90;;
29960;SDS011;16816;44.444;26.152;2022-12-18T01:26:37;56.15;;;10.95;;
29960;SDS011;16816;44.444;26.152;2022-12-18T01:31:43;157.77;;;13.82;;
29960;SDS011;16816;44.444;26.152;2022-12-18T01:36:47;94.22;;;12.15;;
29960;SDS011;16816;44.444;26.152;2022-12-18T01:41:51;37.95;;;10.43;;
29960;SDS011;16816;44.444;26.152;2022-12-18T01:47:08;23.98;;;10.13;;
29960;SDS011;16816;44.444;26.152;2022-12-18T01:52:13;21.13;;;9.82;;
29960;SDS011;16816;44.444;26.152;2022-12-18T01:57:17;9.75;;;8.85;;
29960;SDS011;16816;44.444;26.152;2022-12-18T02:02:22;32.92;;;10.05;;
29960;SDS011;16816;44.444;26.152;2022-12-18T02:12:34;34.55;;;10.98;;
29960;SDS011;16816;44.444;26.152;2022-12-18T02:17:46;10.95;;;9.30;;
29960;SDS011;16816;44.444;26.152;2022-12-18T02:23:01;76.32;;;12.50;;
29960;SDS011;16816;44.444;26.152;2022-12-18T02:28:13;12.10;;;9.50;;
29960;SDS011;16816;44.444;26.152;2022-12-18T02:33:19;86.30;;;12.85;;
29960;SDS011;16816;44.444;26.152;2022-12-18T02:38:25;178.57;;;15.73;;
29960;SDS011;16816;44.444;26.152;2022-12-18T02:43:36;182.27;;;15.73;;
29960;SDS011;16816;44.444;26.152;2022-12-18T02:48:41;159.13;;;15.18;;
29960;SDS011;16816;44.444;26.152;2022-12-18T02:53:50;207.93;;;16.50;;
29960;SDS011;16816;44.444;26.152;2022-12-18T02:58:59;179.90;;;16.48;;
29960;SDS011;16816;44.444;26.152;2022-12-18T03:04:12;194.98;;;16.92;;
29960;SDS011;16816;44.444;26.152;2022-12-18T03:09:18;179.32;;;16.17;;
29960;SDS011;16816;44.444;26.152;2022-12-18T03:14:27;108.35;;;13.98;;
29960;SDS011;16816;44.444;26.152;2022-12-18T03:19:33;198.60;;;17.10;;
29960;SDS011;16816;44.444;26.152;2022-12-18T03:24:39;38.03;;;11.05;;
29960;SDS011;16816;44.444;26.152;2022-12-18T03:29:45;168.60;;;16.40;;
29960;SDS011;16816;44.444;26.152;2022-12-18T03:34:56;181.20;;;16.13;;
29960;SDS011;16816;44.444;26.152;2022-12-18T03:40:06;149.55;;;15.88;;
29960;SDS011;16816;44.444;26.152;2022-12-18T03:45:14;132.52;;;14.57;;
29960;SDS011;16816;44.444;26.152;2022-12-18T03:50:25;199.55;;;17.58;;
29960;SDS011;16816;44.444;26.152;2022-12-18T03:55:35;208.65;;;18.27;;
29960;SDS011;16816;44.444;26.152;2022-12-18T04:00:43;162.57;;;16.52;;
29960;SDS011;16816;44.444;26.152;2022-12-18T04:05:47;218.90;;;18.10;;
29960;SDS011;16816;44.444;26.152;2022-12-18T04:10:55;92.03;;;13.73;;
29960;SDS011;16816;44.444;26.152;2022-12-18T04:16:01;8.18;;;7.32;;
29960;SDS011;16816;44.444;26.152;2022-12-18T04:21:06;190.60;;;17.45;;
29960;SDS011;16816;44.444;26.152;2022-12-18T04:26:11;35.85;;;10.52;;
29960;SDS011;16816;44.444;26.152;2022-12-18T04:31:37;213.57;;;18.23;;
29960;SDS011;16816;44.444;26.152;2022-12-18T04:36:41;212.27;;;18.60;;
29960;SDS011;16816;44.444;26.152;2022-12-18T04:41:45;209.90;;;18.73;;
29960;SDS011;16816;44.444;26.152;2022-12-18T04:46:50;200.45;;;17.45;;
29960;SDS011;16816;44.444;26.152;2022-12-18T04:51:55;193.32;;;17.67;;
29960;SDS011;16816;44.444;26.152;2022-12-18T04:56:59;188.20;;;17.35;;
29960;SDS011;16816;44.444;26.152;2022-12-18T05:02:04;154.95;;;16.27;;
29960;SDS011;16816;44.444;26.152;2022-12-18T05:07:08;211.57;;;18.15;;
29960;SDS011;16816;44.444;26.152;2022-12-18T05:12:12;195.82;;;17.85;;
29960;SDS011;16816;44.444;26.152;2022-12-18T05:17:17;197.95;;;18.42;;
29960;SDS011;16816;44.444;26.152;2022-12-18T05:22:21;187.95;;;17.92;;
29960;SDS011;16816;44.444;26.152;2022-12-18T05:27:25;185.73;;;18.13;;
29960;SDS011;16816;44.444;26.152;2022-12-18T05:32:30;200.32;;;18.33;;
29960;SDS011;16816;44.444;26.152;2022-12-18T05:37:34;206.50;;;18.45;;
29960;SDS011;16816;44.444;26.152;2022-12-18T05:42:44;139.10;;;15.45;;
29960;SDS011;16816;44.444;26.152;2022-12-18T05:47:49;7.75;;;7.00;;
29960;SDS011;16816;44.444;26.152;2022-12-18T05:52:53;7.93;;;7.22;;
29960;SDS011;16816;44.444;26.152;2022-12-18T05:57:57;7.75;;;7.05;;
29960;SDS011;16816;44.444;26.152;2022-12-18T06:03:02;8.55;;;7.75;;
29960;SDS011;16816;44.444;26.152;2022-12-18T06:08:07;8.23;;;7.43;;
29960;SDS011;16816;44.444;26.152;2022-12-18T06:13:11;56.35;;;11.57;;
29960;SDS011;16816;44.444;26.152;2022-12-18T06:18:16;171.98;;;16.55;;
29960;SDS011;16816;44.444;26.152;2022-12-18T06:23:20;161.15;;;15.13;;
29960;SDS011;16816;44.444;26.152;2022-12-18T06:28:24;8.50;;;7.70;;
29960;SDS011;16816;44.444;26.152;2022-12-18T06:33:30;8.63;;;7.82;;
29960;SDS011;16816;44.444;26.152;2022-12-18T06:38:34;6.78;;;6.13;;
29960;SDS011;16816;44.444;26.152;2022-12-18T06:43:39;7.82;;;7.05;;
29960;SDS011;16816;44.444;26.152;2022-12-18T06:48:47;7.22;;;6.00;;
29960;SDS011;16816;44.444;26.152;2022-12-18T06:53:52;6.35;;;5.85;;
29960;SDS011;16816;44.444;26.152;2022-12-18T06:58:56;5.88;;;5.38;;
29960;SDS011;16816;44.444;26.152;2022-12-18T07:04:01;5.97;;;5.47;;
29960;SDS011;16816;44.444;26.152;2022-12-18T07:09:05;5.05;;;4.68;;
29960;SDS011;16816;44.444;26.152;2022-12-18T07:14:09;6.32;;;5.82;;
29960;SDS011;16816;44.444;26.152;2022-12-18T07:19:14;6.60;;;6.00;;
29960;SDS011;16816;44.444;26.152;2022-12-18T07:24:18;7.00;;;6.40;;
29960;SDS011;16816;44.444;26.152;2022-12-18T07:29:22;176.23;;;17.40;;
29960;SDS011;16816;44.444;26.152;2022-12-18T07:34:28;230.63;;;21.42;;
29960;SDS011;16816;44.444;26.152;2022-12-18T07:39:31;229.45;;;21.70;;
29960;SDS011;16816;44.444;26.152;2022-12-18T07:44:35;236.27;;;23.65;;
29960;SDS011;16816;44.444;26.152;2022-12-18T07:49:41;242.10;;;24.70;;
29960;SDS011;16816;44.444;26.152;2022-12-18T07:54:45;239.05;;;24.67;;
29960;SDS011;16816;44.444;26.152;2022-12-18T08:04:56;235.63;;;24.10;;
29960;SDS011;16816;44.444;26.152;2022-12-18T08:10:00;235.85;;;25.60;;
29960;SDS011;16816;44.444;26.152;2022-12-18T08:15:05;248.43;;;26.27;;
29960;SDS011;16816;44.444;26.152;2022-12-18T08:20:11;251.48;;;25.67;;
29960;SDS011;16816;44.444;26.152;2022-12-18T08:25:17;239.85;;;24.95;;
29960;SDS011;16816;44.444;26.152;2022-12-18T08:30:21;232.02;;;24.20;;
29960;SDS011;16816;44.444;26.152;2022-12-18T08:35:26;235.52;;;23.95;;
29960;SDS011;16816;44.444;26.152;2022-12-18T08:40:37;232.88;;;23.02;;
29960;SDS011;16816;44.444;26.152;2022-12-18T08:45:41;231.25;;;23.85;;
29960;SDS011;16816;44.444;26.152;2022-12-18T08:50:54;233.68;;;23.13;;
29960;SDS011;16816;44.444;26.152;2022-12-18T08:55:58;242.60;;;22.73;;
29960;SDS011;16816;44.444;26.152;2022-12-18T09:01:03;211.93;;;20.83;;
29960;SDS011;16816;44.444;26.152;2022-12-18T09:06:13;208.32;;;20.25;;
29960;SDS011;16816;44.444;26.152;2022-12-18T09:11:19;201.88;;;20.17;;
29960;SDS011;16816;44.444;26.152;2022-12-18T09:16:25;156.30;;;17.10;;
29960;SDS011;16816;44.444;26.152;2022-12-18T09:21:35;208.80;;;19.10;;
29960;SDS011;16816;44.444;26.152;2022-12-18T09:26:43;8.50;;;7.80;;
29960;SDS011;16816;44.444;26.152;2022-12-18T09:31:48;6.25;;;5.75;;
29960;SDS011;16816;44.444;26.152;2022-12-18T09:36:54;5.90;;;5.47;;
29960;SDS011;16816;44.444;26.152;2022-12-18T09:41:58;6.00;;;5.50;;
29960;SDS011;16816;44.444;26.152;2022-12-18T09:47:06;6.53;;;5.93;;
29960;SDS011;16816;44.444;26.152;2022-12-18T09:52:15;7.22;;;6.55;;
29960;SDS011;16816;44.444;26.152;2022-12-18T09:57:23;8.13;;;7.13;;
29960;SDS011;16816;44.444;26.152;2022-12-18T10:02:29;10.35;;;8.40;;
29960;SDS011;16816;44.444;26.152;2022-12-18T10:07:41;24.38;;;10.13;;
29960;SDS011;16816;44.444;26.152;2022-12-18T10:12:52;79.53;;;12.68;;
29960;SDS011;16816;44.444;26.152;2022-12-18T10:18:10;40.17;;;11.63;;
29960;SDS011;16816;44.444;26.152;2022-12-18T10:23:25;143.23;;;15.88;;
29960;SDS011;16816;44.444;26.152;2022-12-18T10:28:32;148.07;;;15.63;;
29960;SDS011;16816;44.444;26.152;2022-12-18T10:38:42;159.80;;;16.88;;
29960;SDS011;16816;44.444;26.152;2022-12-18T10:43:46;160.82;;;16.80;;
29960;SDS011;16816;44.444;26.152;2022-12-18T10:48:52;135.40;;;15.68;;
29960;SDS011;16816;44.444;26.152;2022-12-18T10:53:59;136.93;;;15.40;;
29960;SDS011;16816;44.444;26.152;2022-12-18T10:59:06;147.93;;;17.50;;
29960;SDS011;16816;44.444;26.152;2022-12-18T11:04:13;132.02;;;16.25;;
29960;SDS011;16816;44.444;26.152;2022-12-18T11:09:22;142.20;;;16.05;;
29960;SDS011;16816;44.444;26.152;2022-12-18T11:14:27;169.10;;;17.88;;
29960;SDS011;16816;44.444;26.152;2022-12-18T11:19:32;12.07;;;9.40;;
29960;SDS011;16816;44.444;26.152;2022-12-18T11:24:38;165.85;;;16.75;;
29960;SDS011;16816;44.444;26.152;2022-12-18T11:29:42;155.48;;;16.83;;
29960;SDS011;16816;44.444;26.152;2022-12-18T11:34:48;174.27;;;19.20;;
29960;SDS011;16816;44.444;26.152;2022-12-18T11:40:03;149.43;;;18.02;;
29960;SDS011;16816;44.444;26.152;2022-12-18T11:45:18;179.05;;;18.88;;
29960;SDS011;16816;44.444;26.152;2022-12-18T11:50:29;168.93;;;18.42;;
29960;SDS011;16816;44.444;26.152;2022-12-18T11:55:39;177.60;;;19.30;;
29960;SDS011;16816;44.444;26.152;2022-12-18T12:00:47;170.80;;;17.92;;
29960;SDS011;16816;44.444;26.152;2022-12-18T12:06:01;156.55;;;16.88;;
29960;SDS011;16816;44.444;26.152;2022-12-18T12:11:12;171.73;;;19.17;;
29960;SDS011;16816;44.444;26.152;2022-12-18T12:16:24;169.18;;;18.67;;
29960;SDS011;16816;44.444;26.152;2022-12-18T12:21:32;155.48;;;17.55;;
29960;SDS011;16816;44.444;26.152;2022-12-18T12:26:42;149.93;;;18.00;;
29960;SDS011;16816;44.444;26.152;2022-12-18T12:31:54;145.60;;;17.48;;
29960;SDS011;16816;44.444;26.152;2022-12-18T12:37:09;149.45;;;18.20;;
29960;SDS011;16816;44.444;26.152;2022-12-18T12:42:23;162.32;;;18.25;;
29960;SDS011;16816;44.444;26.152;2022-12-18T12:47:48;164.25;;;18.73;;
29960;SDS011;16816;44.444;26.152;2022-12-18T12:52:53;154.47;;;18.03;;
29960;SDS011;16816;44.444;26.152;2022-12-18T13:03:07;155.07;;;17.42;;
29960;SDS011;16816;44.444;26.152;2022-12-18T13:08:22;150.52;;;17.70;;
29960;SDS011;16816;44.444;26.152;2022-12-18T13:13:29;156.68;;;18.80;;
29960;SDS011;16816;44.444;26.152;2022-12-18T13:18:53;167.38;;;20.50;;
29960;SDS011;16816;44.444;26.152;2022-12-18T13:24:14;175.63;;;19.67;;
29960;SDS011;16816;44.444;26.152;2022-12-18T13:34:48;167.25;;;19.38;;
29960;SDS011;16816;44.444;26.152;2022-12-18T13:39:52;168.85;;;19.10;;
29960;SDS011;16816;44.444;26.152;2022-12-18T13:44:58;170.63;;;19.10;;
29960;SDS011;16816;44.444;26.152;2022-12-18T13:55:14;171.90;;;18.70;;
29960;SDS011;16816;44.444;26.152;2022-12-18T14:00:25;187.80;;;20.50;;
29960;SDS011;16816;44.444;26.152;2022-12-18T14:05:31;184.80;;;20.08;;
29960;SDS011;16816;44.444;26.152;2022-12-18T14:10:39;189.02;;;20.50;;
29960;SDS011;16816;44.444;26.152;2022-12-18T14:15:52;188.60;;;21.58;;
29960;SDS011;16816;44.444;26.152;2022-12-18T14:20:56;187.10;;;21.02;;
29960;SDS011;16816;44.444;26.152;2022-12-18T14:26:02;176.18;;;20.00;;
29960;SDS011;16816;44.444;26.152;2022-12-18T14:31:23;188.13;;;20.88;;
29960;SDS011;16816;44.444;26.152;2022-12-18T14:36:28;184.55;;;20.05;;
29960;SDS011;16816;44.444;26.152;2022-12-18T14:41:32;161.65;;;18.83;;
29960;SDS011;16816;44.444;26.152;2022-12-18T14:46:38;179.88;;;19.02;;
29960;SDS011;16816;44.444;26.152;2022-12-18T14:51:45;179.68;;;19.60;;
29960;SDS011;16816;44.444;26.152;2022-12-18T14:56:51;172.45;;;17.67;;
29960;SDS011;16816;44.444;26.152;2022-12-18T15:02:03;158.98;;;17.92;;
29960;SDS011;16816;44.444;26.152;2022-12-18T15:07:09;195.38;;;19.48;;
29960;SDS011;16816;44.444;26.152;2022-12-18T15:12:28;192.25;;;19.52;;
29960;SDS011;16816;44.444;26.152;2022-12-18T15:17:38;182.25;;;19.20;;
29960;SDS011;16816;44.444;26.152;2022-12-18T15:22:42;179.77;;;18.13;;
29960;SDS011;16816;44.444;26.152;2022-12-18T15:27:46;172.75;;;18.88;;
29960;SDS011;16816;44.444;26.152;2022-12-18T15:32:52;196.73;;;19.20;;
29960;SDS011;16816;44.444;26.152;2022-12-18T15:38:20;178.10;;;18.77;;
29960;SDS011;16816;44.444;26.152;2022-12-18T15:43:24;169.98;;;18.40;;
29960;SDS011;16816;44.444;26.152;2022-12-18T15:48:39;197.57;;;20.83;;
29960;SDS011;16816;44.444;26.152;2022-12-18T15:53:44;196.60;;;21.30;;
29960;SDS011;16816;44.444;26.152;2022-12-18T15:58:48;203.10;;;19.20;;
29960;SDS011;16816;44.444;26.152;2022-12-18T16:03:54;229.88;;;20.40;;
29960;SDS011;16816;44.444;26.152;2022-12-18T16:08:58;224.90;;;20.13;;
29960;SDS011;16816;44.444;26.152;2022-12-18T16:14:02;221.43;;;19.08;;
29960;SDS011;16816;44.444;26.152;2022-12-18T16:19:07;188.32;;;18.00;;
29960;SDS011;16816;44.444;26.152;2022-12-18T16:24:13;219.02;;;18.88;;
29960;SDS011;16816;44.444;26.152;2022-12-18T16:29:19;232.30;;;19.40;;
29960;SDS011;16816;44.444;26.152;2022-12-18T16:34:28;232.43;;;19.52;;
29960;SDS011;16816;44.444;26.152;2022-12-18T16:39:37;177.10;;;16.73;;
29960;SDS011;16816;44.444;26.152;2022-12-18T16:44:41;9.25;;;8.27;;
29960;SDS011;16816;44.444;26.152;2022-12-18T16:49:47;190.70;;;17.00;;
29960;SDS011;16816;44.444;26.152;2022-12-18T16:54:53;213.70;;;17.30;;
29960;SDS011;16816;44.444;26.152;2022-12-18T16:59:56;221.27;;;16.88;;
29960;SDS011;16816;44.444;26.152;2022-12-18T17:05:08;176.63;;;16.58;;
29960;SDS011;16816;44.444;26.152;2022-12-18T17:10:12;189.75;;;17.35;;
29960;SDS011;16816;44.444;26.152;2022-12-18T17:15:16;166.60;;;17.05;;
29960;SDS011;16816;44.444;26.152;2022-12-18T17:20:22;140.68;;;15.40;;
29960;SDS011;16816;44.444;26.152;2022-12-18T17:25:26;171.73;;;16.30;;
29960;SDS011;16816;44.444;26.152;2022-12-18T17:30:30;167.85;;;16.42;;
29960;SDS011;16816;44.444;26.152;2022-12-18T17:35:35;198.82;;;17.25;;
29960;SDS011;16816;44.444;26.152;2022-12-18T17:40:39;230.80;;;18.58;;
29960;SDS011;16816;44.444;26.152;2022-12-18T17:45:47;131.88;;;14.40;;
29960;SDS011;16816;44.444;26.152;2022-12-18T17:50:52;214.82;;;17.42;;
29960;SDS011;16816;44.444;26.152;2022-12-18T17:56:01;190.85;;;16.88;;
29960;SDS011;16816;44.444;26.152;2022-12-18T18:01:11;178.50;;;16.58;;
29960;SDS011;16816;44.444;26.152;2022-12-18T18:06:21;181.93;;;16.15;;
29960;SDS011;16816;44.444;26.152;2022-12-18T18:11:26;166.15;;;15.68;;
29960;SDS011;16816;44.444;26.152;2022-12-18T18:16:48;118.72;;;13.90;;
29960;SDS011;16816;44.444;26.152;2022-12-18T18:26:58;211.07;;;17.48;;
29960;SDS011;16816;44.444;26.152;2022-12-18T18:32:02;191.27;;;16.15;;
29960;SDS011;16816;44.444;26.152;2022-12-18T18:37:09;108.15;;;13.70;;
29960;SDS011;16816;44.444;26.152;2022-12-18T18:42:13;190.70;;;16.65;;
29960;SDS011;16816;44.444;26.152;2022-12-18T18:47:17;170.30;;;14.88;;
29960;SDS011;16816;44.444;26.152;2022-12-18T18:52:23;9.60;;;8.65;;
29960;SDS011;16816;44.444;26.152;2022-12-18T18:57:27;142.48;;;14.23;;
29960;SDS011;16816;44.444;26.152;2022-12-18T19:02:31;164.73;;;14.90;;
29960;SDS011;16816;44.444;26.152;2022-12-18T19:07:37;199.23;;;16.58;;
29960;SDS011;16816;44.444;26.152;2022-12-18T19:12:41;202.25;;;16.58;;
29960;SDS011;16816;44.444;26.152;2022-12-18T19:18:02;188.52;;;16.85;;
29960;SDS011;16816;44.444;26.152;2022-12-18T19:23:08;221.77;;;17.27;;
29960;SDS011;16816;44.444;26.152;2022-12-18T19:28:12;90.97;;;13.80;;
29960;SDS011;16816;44.444;26.152;2022-12-18T19:33:23;178.32;;;16.00;;
29960;SDS011;16816;44.444;26.152;2022-12-18T19:38:45;196.43;;;16.35;;
29960;SDS011;16816;44.444;26.152;2022-12-18T19:48:53;164.48;;;15.73;;
29960;SDS011;16816;44.444;26.152;2022-12-18T19:53:59;160.63;;;15.68;;
29960;SDS011;16816;44.444;26.152;2022-12-18T19:59:03;152.23;;;15.05;;
29960;SDS011;16816;44.444;26.152;2022-12-18T20:04:09;212.77;;;17.73;;
29960;SDS011;16816;44.444;26.152;2022-12-18T20:14:18;190.00;;;16.95;;
29960;SDS011;16816;44.444;26.152;2022-12-18T20:19:25;199.88;;;17.15;;
29960;SDS011;16816;44.444;26.152;2022-12-18T20:24:31;153.10;;;15.48;;
29960;SDS011;16816;44.444;26.152;2022-12-18T20:29:35;161.75;;;15.77;;
29960;SDS011;16816;44.444;26.152;2022-12-18T20:34:39;216.73;;;17.63;;
29960;SDS011;16816;44.444;26.152;2022-12-18T20:39:45;206.80;;;17.58;;
29960;SDS011;16816;44.444;26.152;2022-12-18T20:44:49;211.32;;;16.95;;
29960;SDS011;16816;44.444;26.152;2022-12-18T20:49:53;209.38;;;17.98;;
29960;SDS011;16816;44.444;26.152;2022-12-18T20:54:58;179.60;;;16.95;;
29960;SDS011;16816;44.444;26.152;2022-12-18T21:00:06;160.02;;;16.35;;
29960;SDS011;16816;44.444;26.152;2022-12-18T21:05:13;225.10;;;17.65;;
29960;SDS011;16816;44.444;26.152;2022-12-18T21:10:18;185.15;;;16.30;;
29960;SDS011;16816;44.444;26.152;2022-12-18T21:15:23;171.65;;;16.30;;
29960;SDS011;16816;44.444;26.152;2022-12-18T21:20:30;162.98;;;15.85;;
29960;SDS011;16816;44.444;26.152;2022-12-18T21:25:35;229.57;;;17.98;;
29960;SDS011;16816;44.444;26.152;2022-12-18T21:30:39;177.27;;;16.58;;
29960;SDS011;16816;44.444;26.152;2022-12-18T21:35:43;168.05;;;16.35;;
29960;SDS011;16816;44.444;26.152;2022-12-18T21:40:48;215.80;;;17.20;;
29960;SDS011;16816;44.444;26.152;2022-12-18T21:45:52;225.38;;;17.42;;
29960;SDS011;16816;44.444;26.152;2022-12-18T21:50:58;192.15;;;16.65;;
29960;SDS011;16816;44.444;26.152;2022-12-18T21:56:03;184.32;;;16.63;;
29960;SDS011;16816;44.444;26.152;2022-12-18T22:01:08;193.63;;;17.27;;
29960;SDS011;16816;44.444;26.152;2022-12-18T22:06:12;181.82;;;16.10;;
29960;SDS011;16816;44.444;26.152;2022-12-18T22:11:17;208.90;;;19.25;;
29960;SDS011;16816;44.444;26.152;2022-12-18T22:16:23;195.93;;;19.00;;
29960;SDS011;16816;44.444;26.152;2022-12-18T22:21:27;180.27;;;17.10;;
29960;SDS011;16816;44.444;26.152;2022-12-18T22:31:41;174.00;;;17.52;;
29960;SDS011;16816;44.444;26.152;2022-12-18T22:36:46;184.27;;;18.65;;
29960;SDS011;16816;44.444;26.152;2022-12-18T22:41:52;182.48;;;18.63;;
29960;SDS011;16816;44.444;26.152;2022-12-18T22:46:56;176.63;;;18.15;;
29960;SDS011;16816;44.444;26.152;2022-12-18T22:52:08;165.50;;;18.90;;
29960;SDS011;16816;44.444;26.152;2022-12-18T22:57:13;170.60;;;20.08;;
29960;SDS011;16816;44.444;26.152;2022-12-18T23:02:17;195.15;;;20.95;;
29960;SDS011;16816;44.444;26.152;2022-12-18T23:07:22;177.20;;;19.63;;
29960;SDS011;16816;44.444;26.152;2022-12-18T23:12:27;157.93;;;19.60;;
29960;SDS011;16816;44.444;26.152;2022-12-18T23:17:31;152.35;;;19.13;;
29960;SDS011;16816;44.444;26.152;2022-12-18T23:22:35;155.77;;;20.10;;
29960;SDS011;16816;44.444;26.152;2022-12-18T23:27:40;154.02;;;20.33;;
29960;SDS011;16816;44.444;26.152;2022-12-18T23:32:44;147.07;;;20.77;;
29960;SDS011;16816;44.444;26.152;2022-12-18T23:37:48;156.30;;;20.00;;
29960;SDS011;16816;44.444;26.152;2022-12-18T23:43:02;157.73;;;19.98;;
29960;SDS011;16816;44.444;26.152;2022-12-18T23:48:06;156.85;;;21.25;;
29960;SDS011;16816;44.444;26.152;2022-12-18T23:53:10;150.38;;;20.42;;
29960;SDS011;16816;44.444;26.152;2022-12-18T23:58:17;161.88;;;20.88;;
